Time;durP1;ratioP1;P1;durP2;ratioP2;P2;SDS_P1;SDS_P2;PMS_P1;PMS_P2;Temp;Humidity;BMP_temperature;BMP_pressure;BME280_temperature;BME280_humidity;BME280_pressure;Samples;Min_cycle;Max_cycle;Signal;HPM_P1;HPM_P2
2021/05/08 00:02:04;;;;;;;13.17;9.10;;;;;;;4.35;72.36;99033.38;124586;1101;64385;-83
2021/05/08 00:04:31;;;;;;;9.93;7.40;;;;;;;4.43;72.39;99037.50;124880;1101;64348;-83
2021/05/08 00:06:59;;;;;;;9.37;7.33;;;;;;;4.51;72.64;99043.31;124905;1096;64269;-83
2021/05/08 00:09:27;;;;;;;11.27;8.27;;;;;;;4.54;72.11;99041.39;124938;1094;64444;-82
2021/05/08 00:11:55;;;;;;;11.83;10.33;;;;;;;4.54;71.82;99040.54;124885;1101;64480;-82
2021/05/08 00:14:25;;;;;;;14.77;11.20;;;;;;;4.49;71.62;99043.36;124965;1097;64330;-82
2021/05/08 00:16:53;;;;;;;13.57;9.83;;;;;;;4.43;72.09;99051.54;124901;1096;64253;-83
2021/05/08 00:19:21;;;;;;;10.87;8.77;;;;;;;4.40;72.10;99059.59;124947;1101;64272;-82
2021/05/08 00:21:48;;;;;;;12.03;9.17;;;;;;;4.37;72.22;99060.57;124855;1101;64365;-83
2021/05/08 00:24:15;;;;;;;11.50;9.80;;;;;;;4.34;71.96;99052.75;124830;1101;64345;-87
2021/05/08 00:26:42;;;;;;;19.35;13.95;;;;;;;4.32;72.00;99059.05;124978;1101;64333;-83
2021/05/08 00:29:09;;;;;;;17.50;11.50;;;;;;;4.27;71.97;99066.28;124828;1097;64333;-84
2021/05/08 00:31:35;;;;;;;18.40;13.40;;;;;;;4.23;72.16;99062.89;124784;1101;64358;-82
2021/05/08 00:34:02;;;;;;;16.67;12.13;;;;;;;4.20;72.28;99063.02;124997;1096;64343;-83
2021/05/08 00:36:29;;;;;;;14.53;10.33;;;;;;;4.17;72.30;99076.33;124794;1101;64761;-84
2021/05/08 00:38:56;;;;;;;13.00;10.70;;;;;;;4.14;72.19;99079.95;124817;1101;64301;-84
2021/05/08 00:41:22;;;;;;;13.33;9.43;;;;;;;4.12;72.29;99079.14;124876;1101;64312;-84
2021/05/08 00:43:59;;;;;;;11.00;8.73;;;;;;;4.11;72.52;99084.50;124860;1095;64323;-83
2021/05/08 00:46:26;;;;;;;12.93;9.30;;;;;;;4.10;72.39;99077.48;124835;1096;64275;-83
2021/05/08 00:48:56;;;;;;;12.53;9.30;;;;;;;4.12;72.41;99079.14;124843;1097;64327;-83
2021/05/08 00:51:24;;;;;;;12.73;8.73;;;;;;;4.14;72.72;99087.86;124880;1101;64330;-84
2021/05/08 00:53:52;;;;;;;16.35;9.95;;;;;;;4.14;72.68;99085.22;124927;1101;64265;-83
2021/05/08 00:56:20;;;;;;;12.50;11.07;;;;;;;4.15;72.85;99078.16;124894;1096;64265;-82
2021/05/08 00:58:46;;;;;;;14.80;11.47;;;;;;;4.16;72.57;99088.67;124895;1096;64435;-83
2021/05/08 01:01:15;;;;;;;12.97;10.83;;;;;;;4.17;72.99;99090.38;124853;1101;64438;-83
2021/05/08 01:03:45;;;;;;;14.95;10.95;;;;;;;4.21;73.10;99085.83;124813;1101;64303;-83
2021/05/08 01:06:12;;;;;;;12.63;9.77;;;;;;;4.27;73.11;99092.66;124838;1101;64339;-83
2021/05/08 01:08:40;;;;;;;11.23;9.17;;;;;;;4.31;72.90;99096.88;124855;1097;64737;-82
2021/05/08 01:11:07;;;;;;;10.97;8.20;;;;;;;4.34;72.75;99094.97;124790;1101;64343;-82
2021/05/08 01:13:34;;;;;;;10.97;8.13;;;;;;;4.40;72.83;99099.16;124867;1096;64483;-82
2021/05/08 01:16:01;;;;;;;9.00;6.90;;;;;;;4.46;72.83;99090.14;124867;1096;64281;-82
2021/05/08 01:18:29;;;;;;;9.20;7.03;;;;;;;4.51;73.03;99089.03;124878;1101;64267;-82
2021/05/08 01:20:57;;;;;;;10.47;9.07;;;;;;;4.57;72.65;99091.41;124881;1101;64336;-83
2021/05/08 01:23:24;;;;;;;12.90;11.27;;;;;;;4.60;72.42;99090.42;124853;1096;64361;-83
2021/05/08 01:25:51;;;;;;;11.07;9.20;;;;;;;4.62;72.65;99086.80;124826;1101;64336;-83
2021/05/08 01:28:18;;;;;;;11.37;9.17;;;;;;;4.65;72.51;99087.60;124775;1102;64409;-82
2021/05/08 01:30:45;;;;;;;9.80;8.73;;;;;;;4.64;72.28;99084.11;124861;1101;64786;-83
2021/05/08 01:33:12;;;;;;;12.55;10.55;;;;;;;4.66;72.32;99089.30;124841;1101;64438;-83
2021/05/08 01:35:39;;;;;;;14.33;11.60;;;;;;;4.66;72.27;99094.59;124864;1096;64422;-81
2021/05/08 01:38:06;;;;;;;12.97;10.40;;;;;;;4.67;72.42;99089.26;124863;1101;64361;-83
2021/05/08 01:40:40;;;;;;;13.60;11.97;;;;;;;4.68;72.40;99100.67;124826;1101;64339;-84
2021/05/08 01:43:07;;;;;;;14.70;12.87;;;;;;;4.69;72.33;99091.84;124876;1097;64329;-82
2021/05/08 01:45:34;;;;;;;13.45;12.05;;;;;;;4.69;72.00;99095.34;124841;1101;64332;-83
2021/05/08 01:48:03;;;;;;;13.03;10.97;;;;;;;4.70;71.94;99107.61;124846;1097;64335;-83
2021/05/08 01:50:30;;;;;;;14.08;11.25;;;;;;;4.72;72.13;99105.77;124818;1101;64336;-82
2021/05/08 01:52:57;;;;;;;13.47;10.73;;;;;;;4.73;72.05;99104.83;124845;1096;64336;-82
2021/05/08 01:55:28;;;;;;;12.20;10.33;;;;;;;4.74;71.76;99109.20;124906;1096;64362;-83
2021/05/08 01:57:58;;;;;;;13.40;10.33;;;;;;;4.75;71.78;99105.63;124884;1101;64355;-81
2021/05/08 02:00:30;;;;;;;10.40;9.27;;;;;;;4.75;71.76;99123.27;124859;1101;64307;-82
2021/05/08 02:02:58;;;;;;;12.13;10.37;;;;;;;4.76;71.81;99119.69;124857;1101;64374;-82
2021/05/08 02:05:33;;;;;;;12.05;9.95;;;;;;;4.78;71.62;99116.06;124894;1101;64342;-84
2021/05/08 02:08:04;;;;;;;11.57;8.60;;;;;;;4.78;71.73;99116.06;124836;1101;64394;-83
2021/05/08 02:10:31;;;;;;;10.07;9.10;;;;;;;4.79;71.64;99109.88;124855;1101;64429;-82
2021/05/08 02:13:01;;;;;;;13.17;10.20;;;;;;;4.78;71.65;99120.48;124901;1101;64336;-85
2021/05/08 02:15:28;;;;;;;12.90;10.40;;;;;;;4.76;71.71;99132.89;124870;1101;64412;-83
2021/05/08 02:17:54;;;;;;;12.13;10.53;;;;;;;4.73;71.65;99128.59;124808;1096;64722;-82
2021/05/08 02:20:26;;;;;;;12.97;10.17;;;;;;;4.73;71.73;99128.59;124856;1101;64351;-82
2021/05/08 02:22:55;;;;;;;12.77;10.43;;;;;;;4.75;71.66;99125.91;124873;1101;64360;-82
2021/05/08 02:25:23;;;;;;;12.63;10.67;;;;;;;4.74;71.59;99130.33;124842;1101;64326;-83
2021/05/08 02:27:51;;;;;;;12.30;10.07;;;;;;;4.74;71.49;99129.44;124833;1101;64374;-82
2021/05/08 02:30:26;;;;;;;13.10;11.03;;;;;;;4.73;71.64;99133.02;124913;1102;64306;-82
2021/05/08 02:32:54;;;;;;;13.60;11.53;;;;;;;4.72;71.74;99128.67;124980;1101;64333;-83
2021/05/08 02:35:22;;;;;;;12.03;10.47;;;;;;;4.69;71.77;99142.86;124919;1096;64361;-82
2021/05/08 02:37:50;;;;;;;12.60;10.25;;;;;;;4.68;71.65;99135.84;124858;1101;64394;-84
2021/05/08 02:40:20;;;;;;;9.97;8.97;;;;;;;4.67;71.71;99141.20;124864;1101;64588;-83
2021/05/08 02:42:47;;;;;;;11.35;9.50;;;;;;;4.66;71.65;99131.54;124902;1102;64340;-83
2021/05/08 02:45:15;;;;;;;10.37;8.90;;;;;;;4.62;71.67;99138.73;124838;1097;64323;-83
2021/05/08 02:47:44;;;;;;;10.00;8.90;;;;;;;4.57;71.72;99143.34;124867;1096;64336;-83
2021/05/08 02:50:14;;;;;;;10.40;8.70;;;;;;;4.52;71.52;99142.66;124838;1101;64330;-84
2021/05/08 02:52:42;;;;;;;13.00;10.10;;;;;;;4.45;71.78;99142.06;124804;1101;64485;-83
2021/05/08 02:55:11;;;;;;;12.63;10.00;;;;;;;4.41;71.82;99153.64;124790;1097;64349;-83
2021/05/08 02:57:38;;;;;;;10.60;8.57;;;;;;;4.35;71.99;99162.66;124846;1101;64332;-82
2021/05/08 03:00:07;;;;;;;10.10;8.97;;;;;;;4.31;71.84;99162.84;124865;1096;64332;-82
2021/05/08 03:02:34;;;;;;;9.77;8.33;;;;;;;4.28;71.88;99165.59;124817;1097;64355;-82
2021/05/08 03:05:01;;;;;;;10.20;7.83;;;;;;;4.21;72.04;99167.59;124876;1101;64811;-82
2021/05/08 03:07:28;;;;;;;8.67;6.93;;;;;;;4.18;72.10;99176.48;124868;1096;64367;-83
2021/05/08 03:09:54;;;;;;;8.93;7.80;;;;;;;4.12;72.18;99176.73;124842;1095;64303;-85
2021/05/08 03:12:22;;;;;;;7.67;6.23;;;;;;;4.10;71.96;99181.19;124951;1101;64279;-82
2021/05/08 03:14:48;;;;;;;6.57;5.97;;;;;;;4.11;72.13;99189.99;124962;1101;64336;-83
2021/05/08 03:17:15;;;;;;;7.70;6.43;;;;;;;4.12;72.39;99189.92;124843;1101;64361;-85
2021/05/08 03:19:42;;;;;;;6.95;6.25;;;;;;;4.17;72.38;99187.11;124934;1101;64348;-83
2021/05/08 03:22:09;;;;;;;7.40;6.23;;;;;;;4.23;72.15;99200.06;124936;1097;64334;-83
2021/05/08 03:24:35;;;;;;;7.60;6.77;;;;;;;4.26;72.08;99188.53;124804;1101;64786;-86
2021/05/08 03:27:02;;;;;;;7.10;6.30;;;;;;;4.29;72.25;99198.96;124831;1097;64416;-82
2021/05/08 03:29:29;;;;;;;6.93;5.53;;;;;;;4.32;72.16;99202.36;124871;1096;64246;-82
2021/05/08 03:31:56;;;;;;;8.20;5.57;;;;;;;4.35;72.24;99214.58;124834;1101;64361;-82
2021/05/08 03:34:23;;;;;;;6.60;5.20;;;;;;;4.36;72.25;99209.23;124948;1101;64339;-83
2021/05/08 03:36:50;;;;;;;9.43;6.37;;;;;;;4.38;72.00;99210.03;124926;1095;64393;-84
2021/05/08 03:39:16;;;;;;;6.50;5.63;;;;;;;4.44;71.87;99213.36;124927;1101;64330;-82
2021/05/08 03:41:43;;;;;;;7.67;5.40;;;;;;;4.49;71.99;99206.13;124940;1101;64387;-82
2021/05/08 03:44:10;;;;;;;6.87;5.63;;;;;;;4.53;71.78;99212.98;124872;1101;64387;-82
2021/05/08 03:46:37;;;;;;;7.23;5.43;;;;;;;4.59;71.89;99210.98;124913;1101;64335;-82
2021/05/08 03:49:04;;;;;;;6.33;4.83;;;;;;;4.66;71.77;99221.29;124835;1101;64351;-83
2021/05/08 03:51:32;;;;;;;6.30;5.10;;;;;;;4.67;71.60;99218.61;124866;1101;64477;-83
2021/05/08 03:53:58;;;;;;;7.00;5.57;;;;;;;4.71;71.63;99219.33;124855;1097;64390;-81
2021/05/08 03:56:25;;;;;;;7.80;6.23;;;;;;;4.74;71.68;99214.81;124919;1096;64349;-81
2021/05/08 03:58:52;;;;;;;7.00;5.57;;;;;;;4.77;71.60;99230.53;124926;1101;64286;-82
2021/05/08 04:01:19;;;;;;;9.03;6.40;;;;;;;4.81;71.43;99225.97;124892;1101;64396;-84
2021/05/08 04:03:46;;;;;;;13.13;7.53;;;;;;;4.86;71.44;99226.66;124890;1096;64323;-83
2021/05/08 04:06:12;;;;;;;12.30;8.93;;;;;;;4.91;71.38;99234.40;124895;1101;64387;-83
2021/05/08 04:08:39;;;;;;;13.50;9.10;;;;;;;4.96;71.53;99235.93;124888;1101;64313;-83
2021/05/08 04:11:06;;;;;;;9.80;7.40;;;;;;;5.02;71.24;99235.67;124881;1101;64431;-83
2021/05/08 04:13:33;;;;;;;10.20;8.07;;;;;;;5.13;70.99;99237.02;124842;1095;64416;-82
2021/05/08 04:16:00;;;;;;;7.77;6.97;;;;;;;5.22;70.66;99236.66;124861;1101;64457;-82
2021/05/08 04:18:27;;;;;;;11.97;9.07;;;;;;;5.28;70.53;99242.53;124833;1097;64680;-82
2021/05/08 04:20:53;;;;;;;9.77;8.27;;;;;;;5.35;70.32;99244.95;124877;1097;64339;-82
2021/05/08 04:23:20;;;;;;;10.85;8.20;;;;;;;5.39;70.18;99242.09;124882;1096;64336;-83
2021/05/08 04:25:47;;;;;;;9.77;7.70;;;;;;;5.43;69.93;99242.84;124963;1101;64336;-83
2021/05/08 04:28:14;;;;;;;11.67;8.60;;;;;;;5.44;69.76;99248.04;124880;1095;64342;-82
2021/05/08 04:30:41;;;;;;;14.13;8.73;;;;;;;5.47;69.83;99250.55;124836;1096;64255;-83
2021/05/08 04:33:08;;;;;;;13.97;9.73;;;;;;;5.55;69.67;99257.30;124907;1101;64336;-82
2021/05/08 04:35:34;;;;;;;14.03;10.27;;;;;;;5.61;69.37;99255.28;124877;1096;64275;-82
2021/05/08 04:38:03;;;;;;;14.97;11.53;;;;;;;5.65;69.04;99255.99;124852;1096;64333;-83
2021/05/08 04:40:32;;;;;;;16.93;12.33;;;;;;;5.72;69.11;99260.11;124856;1096;64489;-83
2021/05/08 04:42:58;;;;;;;19.20;14.47;;;;;;;5.80;68.98;99257.98;124861;1096;64298;-82
2021/05/08 04:45:25;;;;;;;15.67;11.57;;;;;;;5.86;68.54;99254.21;124844;1096;64303;-83
2021/05/08 04:47:57;;;;;;;13.37;10.03;;;;;;;5.90;68.67;99263.75;124875;1097;64425;-82
2021/05/08 04:50:25;;;;;;;10.77;8.03;;;;;;;5.93;67.99;99264.49;124881;1096;64229;-83
2021/05/08 04:52:53;;;;;;;9.60;8.60;;;;;;;5.99;68.32;99265.16;124881;1097;64716;-83
2021/05/08 04:55:21;;;;;;;10.03;8.57;;;;;;;6.12;68.17;99275.13;124896;1101;64400;-82
2021/05/08 04:57:48;;;;;;;8.80;7.63;;;;;;;6.34;68.03;99274.16;124886;1096;64345;-83
2021/05/08 05:00:16;;;;;;;10.90;8.00;;;;;;;6.58;67.79;99275.70;124851;1101;64396;-85
2021/05/08 05:02:44;;;;;;;7.67;6.47;;;;;;;6.78;67.32;99281.85;124859;1101;64392;-82
2021/05/08 05:05:13;;;;;;;7.57;6.17;;;;;;;7.02;66.70;99272.73;124877;1101;64833;-82
2021/05/08 05:07:43;;;;;;;6.00;4.70;;;;;;;7.10;66.37;99271.52;124882;1096;64336;-81
2021/05/08 05:10:14;;;;;;;6.60;5.83;;;;;;;7.19;65.98;99276.39;124836;1101;64300;-82
2021/05/08 05:12:42;;;;;;;6.00;5.10;;;;;;;7.36;65.57;99276.41;124891;1101;64336;-83
2021/05/08 05:15:09;;;;;;;5.93;4.97;;;;;;;7.63;64.82;99279.46;124904;1095;64327;-83
2021/05/08 05:17:36;;;;;;;6.43;5.30;;;;;;;8.40;63.62;99264.03;124809;1101;64376;-83
2021/05/08 05:20:05;;;;;;;5.37;4.83;;;;;;;8.97;62.19;99270.61;124866;1096;64488;-82
2021/05/08 05:22:32;;;;;;;6.13;4.70;;;;;;;9.28;61.33;99263.57;124897;1097;64661;-83
2021/05/08 05:24:58;;;;;;;5.00;4.47;;;;;;;9.44;61.17;99272.38;124857;1101;64360;-83
2021/05/08 05:27:26;;;;;;;5.30;4.37;;;;;;;9.37;60.21;99280.80;124867;1101;64435;-82
2021/05/08 05:29:52;;;;;;;4.73;4.23;;;;;;;9.31;59.17;99278.50;124924;1101;64323;-82
2021/05/08 05:32:19;;;;;;;6.73;4.90;;;;;;;9.38;60.38;99282.53;124910;1096;64329;-84
2021/05/08 05:34:46;;;;;;;6.50;4.65;;;;;;;10.17;58.86;99284.95;124809;1101;64275;-86
2021/05/08 05:37:12;;;;;;;4.77;4.27;;;;;;;10.44;58.47;99293.08;124869;1096;64246;-83
2021/05/08 05:39:40;;;;;;;4.20;3.55;;;;;;;10.60;56.32;99287.66;124860;1101;64246;-83
2021/05/08 05:42:06;;;;;;;3.70;3.30;;;;;;;11.15;54.73;99291.30;124819;1097;64358;-83
2021/05/08 05:44:33;;;;;;;4.33;3.73;;;;;;;11.57;54.38;99282.30;124874;1101;64502;-83
2021/05/08 05:47:00;;;;;;;5.67;4.00;;;;;;;11.60;55.33;99289.25;124940;1101;64352;-83
2021/05/08 05:49:27;;;;;;;4.47;3.03;;;;;;;11.97;53.04;99290.33;124794;1096;64377;-82
2021/05/08 05:51:53;;;;;;;5.33;3.53;;;;;;;11.86;53.82;99288.39;124875;1096;64252;-84
2021/05/08 05:54:20;;;;;;;3.10;2.80;;;;;;;11.73;52.72;99284.80;124815;1097;64263;-84
2021/05/08 05:56:47;;;;;;;4.43;3.63;;;;;;;11.99;53.61;99288.41;124889;1101;64450;-82
2021/05/08 05:59:14;;;;;;;3.40;3.10;;;;;;;12.04;52.54;99294.30;124909;1101;64448;-85
2021/05/08 06:01:42;;;;;;;6.83;3.70;;;;;;;12.17;53.05;99290.80;125516;1101;64326;-82
2021/05/08 06:04:08;;;;;;;4.83;2.70;;;;;;;12.45;51.10;99290.60;125347;1096;64332;-82
2021/05/08 06:06:35;;;;;;;3.53;2.53;;;;;;;12.99;49.20;99294.80;125635;1101;64336;-81
2021/05/08 06:09:02;;;;;;;2.65;2.20;;;;;;;12.71;48.25;99301.26;127711;1101;64381;-81
2021/05/08 06:11:29;;;;;;;2.40;2.10;;;;;;;12.85;49.08;99293.13;125448;1101;64313;-84
2021/05/08 06:13:56;;;;;;;3.17;2.63;;;;;;;12.01;48.32;99304.35;125008;1101;64275;-84
2021/05/08 06:16:22;;;;;;;4.10;3.07;;;;;;;11.23;49.91;99307.67;125007;1095;64391;-87
2021/05/08 06:18:49;;;;;;;4.47;3.17;;;;;;;10.69;51.38;99308.42;124916;1101;64382;-84
2021/05/08 06:21:16;;;;;;;3.40;2.70;;;;;;;10.39;52.03;99321.81;124913;1096;64413;-84
2021/05/08 06:23:43;;;;;;;3.83;3.20;;;;;;;10.14;52.49;99319.77;125011;1101;64403;-84
2021/05/08 06:26:09;;;;;;;4.17;2.80;;;;;;;9.99;52.94;99321.52;124962;1101;64336;-83
2021/05/08 06:28:36;;;;;;;5.07;2.97;;;;;;;10.12;53.03;99324.31;124891;1097;65850;-82
2021/05/08 06:31:03;;;;;;;5.50;3.00;;;;;;;9.97;53.25;99322.56;124940;1097;64859;-82
2021/05/08 06:33:29;;;;;;;4.17;3.23;;;;;;;10.06;52.96;99317.55;124948;1097;64359;-83
2021/05/08 06:36:00;;;;;;;5.30;3.60;;;;;;;10.69;52.68;99315.53;124884;1101;64396;-82
2021/05/08 06:38:26;;;;;;;;;;;;;;;11.11;52.55;99308.45;124933;1095;64286;-82
2021/05/08 06:40:53;;;;;;;4.73;3.23;;;;;;;11.37;52.24;99307.65;124842;1101;64246;-83
2021/05/08 06:43:21;;;;;;;4.47;3.23;;;;;;;11.70;51.81;99301.03;124845;1097;64461;-82
2021/05/08 06:45:48;;;;;;;4.47;3.50;;;;;;;11.85;51.42;99291.14;124831;1101;64393;-83
2021/05/08 06:48:15;;;;;;;5.07;3.40;;;;;;;12.14;50.37;99283.85;124898;1095;64355;-83
2021/05/08 06:50:46;;;;;;;4.60;3.25;;;;;;;12.23;50.54;99288.55;124831;1101;64302;-84
2021/05/08 06:53:13;;;;;;;4.27;3.87;;;;;;;12.57;50.78;99296.89;124809;1101;64284;-82
2021/05/08 06:55:39;;;;;;;4.40;3.47;;;;;;;12.91;50.45;99303.38;124846;1096;64419;-83
2021/05/08 06:58:06;;;;;;;5.10;3.15;;;;;;;12.62;49.03;99299.25;124867;1101;64252;-84
2021/05/08 07:00:33;;;;;;;3.37;2.77;;;;;;;12.46;49.19;99302.14;124869;1101;64255;-83
2021/05/08 07:03:00;;;;;;;4.63;3.23;;;;;;;12.69;49.28;99298.70;124771;1101;64331;-81
2021/05/08 07:05:28;;;;;;;3.70;2.90;;;;;;;13.14;49.46;99300.88;124863;1096;64355;-83
2021/05/08 07:08:03;;;;;;;4.27;3.20;;;;;;;13.30;49.01;99306.84;124861;1101;64416;-84
2021/05/08 07:10:30;;;;;;;4.07;2.80;;;;;;;13.03;47.81;99303.45;124883;1101;64480;-82
2021/05/08 07:12:57;;;;;;;4.33;2.70;;;;;;;12.78;46.64;99304.36;124834;1097;64323;-84
2021/05/08 07:15:24;;;;;;;5.00;3.40;;;;;;;12.68;48.25;99310.34;124880;1101;64365;-85
2021/05/08 07:18:04;;;;;;;3.33;2.87;;;;;;;12.48;47.01;99301.08;124817;1101;64255;-82
2021/05/08 07:20:32;;;;;;;4.40;3.00;;;;;;;12.01;47.93;99304.35;124947;1097;64333;-81
2021/05/08 07:23:00;;;;;;;4.00;3.37;;;;;;;11.69;48.72;99311.80;124855;1101;64281;-82
2021/05/08 07:25:27;;;;;;;4.37;3.13;;;;;;;11.48;48.86;99314.07;124825;1101;64422;-81
2021/05/08 07:28:07;;;;;;;4.83;3.60;;;;;;;11.35;49.56;99314.04;124871;1100;64253;-84
2021/05/08 07:30:36;;;;;;;5.73;3.37;;;;;;;11.29;49.49;99320.61;124886;1101;64248;-82
2021/05/08 07:33:03;;;;;;;4.23;3.43;;;;;;;11.34;49.24;99326.50;124899;1101;64759;-81
2021/05/08 07:35:30;;;;;;;6.23;3.27;;;;;;;11.43;49.99;99314.39;124875;1101;64326;-83
2021/05/08 07:37:57;;;;;;;4.20;2.97;;;;;;;11.63;50.04;99313.91;124880;1097;64337;-83
2021/05/08 07:40:24;;;;;;;4.55;3.80;;;;;;;11.85;50.18;99316.03;124881;1097;64413;-83
2021/05/08 07:42:51;;;;;;;5.75;4.00;;;;;;;12.06;48.78;99324.45;124857;1097;64320;-83
2021/05/08 07:45:18;;;;;;;6.83;3.33;;;;;;;12.12;48.91;99314.30;124829;1096;64332;-82
2021/05/08 07:47:45;;;;;;;4.50;3.07;;;;;;;11.95;48.06;99320.77;124866;1097;64299;-82
2021/05/08 07:50:12;;;;;;;4.30;2.70;;;;;;;11.51;49.10;99321.91;124824;1097;64365;-82
2021/05/08 07:52:38;;;;;;;5.13;2.87;;;;;;;11.09;49.69;99335.23;124868;1095;64355;-82
2021/05/08 07:55:06;;;;;;;4.93;3.20;;;;;;;10.72;49.93;99337.55;124892;1096;64333;-82
2021/05/08 07:57:33;;;;;;;4.25;3.20;;;;;;;10.50;50.49;99337.14;124829;1101;64370;-83
2021/05/08 07:59:59;;;;;;;5.57;3.50;;;;;;;10.54;51.45;99336.88;124852;1101;64477;-82
2021/05/08 08:02:26;;;;;;;5.53;4.50;;;;;;;11.07;52.13;99338.95;124918;1096;64396;-83
2021/05/08 08:04:53;;;;;;;6.63;3.90;;;;;;;11.69;51.56;99333.16;124905;1101;64392;-82
2021/05/08 08:07:20;;;;;;;5.60;4.23;;;;;;;12.06;50.93;99336.95;124850;1101;64332;-82
2021/05/08 08:09:46;;;;;;;5.60;4.40;;;;;;;12.12;49.91;99330.33;124867;1101;64489;-82
2021/05/08 08:12:14;;;;;;;7.77;5.37;;;;;;;12.23;50.27;99328.63;124922;1096;64412;-82
2021/05/08 08:14:41;;;;;;;4.80;4.20;;;;;;;12.62;50.42;99321.48;124854;1101;64339;-82
2021/05/08 08:17:07;;;;;;;8.57;4.57;;;;;;;13.02;50.36;99326.68;124866;1101;64322;-83
2021/05/08 08:19:34;;;;;;;5.03;3.77;;;;;;;12.84;47.34;99327.98;124867;1097;64425;-84
2021/05/08 08:22:01;;;;;;;3.93;3.43;;;;;;;12.89;48.32;99333.88;124990;1101;64275;-82
2021/05/08 08:24:28;;;;;;;4.70;3.53;;;;;;;13.03;48.31;99333.73;124898;1101;64483;-82
2021/05/08 08:26:54;;;;;;;3.60;2.73;;;;;;;13.22;48.13;99327.93;124845;1096;64377;-82
2021/05/08 08:29:22;;;;;;;3.30;2.30;;;;;;;13.43;47.44;99332.70;124815;1101;64345;-81
2021/05/08 08:31:49;;;;;;;2.73;2.20;;;;;;;13.54;46.63;99327.43;124923;1095;64322;-81
2021/05/08 08:34:16;;;;;;;3.23;2.43;;;;;;;13.60;46.46;99324.28;124824;1095;64387;-83
2021/05/08 08:36:43;;;;;;;2.70;2.50;;;;;;;13.70;46.57;99319.11;124899;1095;64371;-82
2021/05/08 08:39:09;;;;;;;4.07;3.30;;;;;;;13.59;46.58;99323.44;124832;1101;64300;-82
2021/05/08 08:41:36;;;;;;;3.17;2.63;;;;;;;13.47;45.44;99328.84;124855;1101;64238;-83
2021/05/08 08:44:09;;;;;;;3.57;2.93;;;;;;;13.25;46.11;99330.38;124831;1101;64751;-83
2021/05/08 08:46:46;;;;;;;3.53;2.83;;;;;;;12.96;46.23;99333.33;124812;1096;64473;-82
2021/05/08 08:49:15;;;;;;;4.53;3.10;;;;;;;12.45;46.76;99338.72;124907;1095;64360;-84
2021/05/08 08:51:43;;;;;;;3.70;3.33;;;;;;;12.06;47.37;99339.63;124896;1101;64322;-83
2021/05/08 08:54:12;;;;;;;4.87;3.10;;;;;;;11.85;47.75;99345.41;124879;1096;64359;-85
2021/05/08 08:56:44;;;;;;;3.00;2.77;;;;;;;11.75;48.25;99346.97;124847;1101;64326;-83
2021/05/08 08:59:27;;;;;;;4.60;3.27;;;;;;;11.63;47.84;99361.12;124935;1096;64464;-83
2021/05/08 09:01:55;;;;;;;3.05;2.75;;;;;;;11.52;47.98;99369.83;124847;1101;64416;-82
2021/05/08 09:04:23;;;;;;;3.83;2.57;;;;;;;11.40;46.55;99363.48;124907;1097;64223;-81
2021/05/08 09:06:50;;;;;;;3.13;2.83;;;;;;;11.27;46.85;99365.23;124883;1101;64389;-82
2021/05/08 09:09:18;;;;;;;5.30;3.00;;;;;;;11.47;48.04;99365.75;124814;1101;64323;-81
2021/05/08 09:11:53;;;;;;;3.47;3.17;;;;;;;11.99;47.98;99349.84;124835;1101;64397;-82
2021/05/08 09:14:19;;;;;;;3.67;2.90;;;;;;;12.28;46.37;99345.20;124885;1102;64323;-83
2021/05/08 09:17:13;;;;;;;6.43;3.47;;;;;;;12.31;46.51;99344.14;124837;1101;64347;-82
2021/05/08 09:19:48;;;;;;;4.20;3.07;;;;;;;12.54;47.28;99350.58;124926;1101;64277;-82
2021/05/08 09:22:28;;;;;;;3.60;3.30;;;;;;;12.58;45.80;99357.41;124772;1101;64336;-84
2021/05/08 09:24:59;;;;;;;3.47;2.80;;;;;;;12.48;45.62;99343.84;124848;1095;64213;-85
2021/05/08 09:27:44;;;;;;;4.27;3.07;;;;;;;12.35;46.10;99359.02;124843;1096;64419;-82
2021/05/08 09:30:18;;;;;;;5.23;3.90;;;;;;;12.30;46.64;99353.13;124908;1096;64377;-82
2021/05/08 09:32:46;;;;;;;4.27;3.40;;;;;;;12.37;46.60;99351.72;124863;1101;64346;-83
2021/05/08 09:35:19;;;;;;;4.93;3.20;;;;;;;12.34;46.68;99359.11;124915;1101;64313;-83
2021/05/08 09:37:49;;;;;;;5.13;3.93;;;;;;;12.32;47.58;99353.86;124884;1097;64361;-83
2021/05/08 09:40:24;;;;;;;4.68;3.13;;;;;;;12.48;48.34;99350.98;124941;1101;64696;-82
2021/05/08 09:42:56;;;;;;;4.75;4.20;;;;;;;12.58;46.89;99348.54;124949;1096;64332;-82
2021/05/08 09:45:25;;;;;;;3.87;3.17;;;;;;;12.82;44.64;99343.28;124944;1096;64298;-82
2021/05/08 09:47:53;;;;;;;5.60;4.00;;;;;;;12.74;44.53;99338.47;124936;1096;64352;-82
2021/05/08 09:50:25;;;;;;;4.23;3.27;;;;;;;12.81;45.61;99344.27;124931;1101;64370;-82
2021/05/08 09:52:54;;;;;;;4.87;3.50;;;;;;;12.88;45.56;99345.55;124845;1101;64499;-82
2021/05/08 09:55:23;;;;;;;3.60;3.00;;;;;;;12.93;45.60;99343.41;124885;1102;64323;-82
2021/05/08 09:58:00;;;;;;;4.17;3.50;;;;;;;13.00;44.04;99339.30;124876;1095;64346;-82
2021/05/08 10:00:38;;;;;;;4.30;2.90;;;;;;;13.07;43.77;99342.41;124833;1097;64395;-82
2021/05/08 10:03:11;;;;;;;4.00;3.07;;;;;;;13.00;43.82;99352.68;124847;1101;64483;-83
2021/05/08 10:05:42;;;;;;;3.47;3.00;;;;;;;13.06;44.43;99346.91;124904;1101;64412;-83
2021/05/08 10:08:10;;;;;;;2.67;2.47;;;;;;;13.31;43.91;99347.84;124839;1096;64320;-82
2021/05/08 10:10:37;;;;;;;2.77;2.57;;;;;;;13.69;45.52;99328.97;124846;1101;64413;-82
2021/05/08 10:13:10;;;;;;;4.73;3.03;;;;;;;14.04;44.90;99326.31;124873;1101;64333;-82
2021/05/08 10:15:39;;;;;;;5.00;3.00;;;;;;;14.15;43.90;99333.53;124851;1101;64464;-82
2021/05/08 10:18:10;;;;;;;6.80;3.13;;;;;;;14.08;44.01;99334.11;124903;1101;64493;-82
2021/05/08 10:20:42;;;;;;;3.43;2.63;;;;;;;14.18;42.73;99332.44;124880;1096;64330;-82
2021/05/08 10:23:13;;;;;;;4.60;2.97;;;;;;;14.49;43.40;99328.26;124876;1101;64332;-81
2021/05/08 10:25:42;;;;;;;4.15;2.50;;;;;;;14.77;41.10;99328.80;124844;1101;64355;-82
2021/05/08 10:28:09;;;;;;;3.53;2.83;;;;;;;14.99;41.79;99326.13;124797;1101;64582;-82
2021/05/08 10:30:46;;;;;;;3.35;2.95;;;;;;;14.77;40.68;99326.11;124888;1101;64364;-82
2021/05/08 10:33:20;;;;;;;2.77;2.57;;;;;;;14.34;41.34;99324.92;124855;1101;64330;-81
2021/05/08 10:35:52;;;;;;;3.63;2.33;;;;;;;14.04;41.61;99320.95;124866;1101;64346;-82
2021/05/08 10:38:34;;;;;;;4.80;2.67;;;;;;;13.88;41.60;99317.73;124829;1101;64358;-82
2021/05/08 10:41:11;;;;;;;3.70;2.90;;;;;;;13.56;40.29;99328.14;124907;1096;64333;-82
2021/05/08 10:43:43;;;;;;;3.27;2.97;;;;;;;13.58;40.73;99326.22;124831;1097;64293;-82
2021/05/08 10:46:13;;;;;;;3.93;3.37;;;;;;;13.78;41.50;99332.78;124868;1096;64423;-82
2021/05/08 10:49:00;;;;;;;;;;;;;;;14.13;41.17;99322.06;124888;1101;64298;-82
2021/05/08 10:51:53;;;;;;;3.37;2.63;;;;;;;14.38;39.97;99317.52;124834;1096;64309;-82
2021/05/08 10:54:44;;;;;;;3.33;2.30;;;;;;;14.43;38.22;99326.91;124786;1097;64336;-82
2021/05/08 10:57:15;;;;;;;2.53;2.33;;;;;;;14.34;37.46;99327.60;124863;1101;64473;-82
2021/05/08 11:00:04;;;;;;;4.13;2.63;;;;;;;14.05;38.64;99321.80;124878;1095;64355;-82
2021/05/08 11:02:40;;;;;;;2.20;1.80;;;;;;;13.79;39.56;99324.61;124823;1101;64335;-81
2021/05/08 11:05:23;;;;;;;3.53;2.37;;;;;;;13.58;39.62;99315.50;124876;1095;64332;-82
2021/05/08 11:07:51;;;;;;;2.50;2.20;;;;;;;13.36;39.62;99325.13;124885;1101;64437;-82
2021/05/08 11:10:33;;;;;;;3.40;2.00;;;;;;;13.27;40.01;99324.93;124866;1101;64416;-81
2021/05/08 11:13:10;;;;;;;2.40;1.93;;;;;;;13.22;39.39;99327.05;124820;1097;64484;-82
2021/05/08 11:15:53;;;;;;;2.83;2.00;;;;;;;13.17;39.28;99325.58;124859;1097;64352;-81
2021/05/08 11:18:32;;;;;;;4.63;2.20;;;;;;;13.32;38.36;99326.33;124845;1097;64284;-83
2021/05/08 11:21:08;;;;;;;3.00;1.97;;;;;;;13.30;37.41;99322.91;124870;1096;64336;-82
2021/05/08 11:23:46;;;;;;;2.83;2.20;;;;;;;13.30;38.66;99322.91;124919;1101;64397;-82
2021/05/08 11:26:37;;;;;;;2.27;1.70;;;;;;;13.34;36.45;99312.81;124960;1101;64252;-82
2021/05/08 11:29:09;;;;;;;2.03;1.80;;;;;;;13.41;38.44;99316.77;124888;1101;64285;-82
2021/05/08 11:31:50;;;;;;;3.30;2.00;;;;;;;13.55;38.01;99305.88;125013;1101;64337;-82
2021/05/08 11:34:28;;;;;;;3.60;2.05;;;;;;;13.61;37.19;99302.77;124827;1101;64422;-83
2021/05/08 11:37:00;;;;;;;3.03;2.73;;;;;;;13.61;36.82;99299.20;124874;1096;64415;-83